createdAt,value
2023-02-07T05:00:49.854Z,94.31
2023-02-07T05:01:49.879Z,94.10
2023-02-07T05:02:49.697Z,93.64
2023-02-07T05:03:49.724Z,93.01
2023-02-07T05:04:49.763Z,92.58
2023-02-07T05:05:49.681Z,92.06
2023-02-07T05:06:49.820Z,91.85
2023-02-07T05:07:49.692Z,91.74
2023-02-07T05:08:49.648Z,91.64
2023-02-07T05:09:49.707Z,91.74
2023-02-07T05:10:49.635Z,92.10
2023-02-07T05:11:49.827Z,92.73
2023-02-07T05:12:49.600Z,93.05
2023-02-07T05:13:59.621Z,93.37
2023-02-07T05:14:49.581Z,93.15
2023-02-07T05:15:49.579Z,92.94
2023-02-07T05:16:49.558Z,93.05
2023-02-07T05:17:49.620Z,93.30
2023-02-07T05:18:49.520Z,93.41
2023-02-07T05:19:49.521Z,93.09
2023-02-07T05:20:52.186Z,93.09
2023-02-07T05:21:49.504Z,93.41
2023-02-07T05:22:49.534Z,93.66
2023-02-07T05:23:49.580Z,93.87
2023-02-07T05:24:49.452Z,94.08
2023-02-07T05:25:49.520Z,94.08
2023-02-07T05:26:49.427Z,94.44
2023-02-07T05:27:49.449Z,94.65
2023-02-07T05:28:49.399Z,94.97
2023-02-07T05:29:49.950Z,95.54
2023-02-07T05:30:49.458Z,96.07
2023-02-07T05:31:49.544Z,96.17
2023-02-07T05:32:49.360Z,96.59
2023-02-07T05:33:49.347Z,96.81
2023-02-07T05:34:49.317Z,96.59
2023-02-07T05:35:49.392Z,96.70
2023-02-07T05:36:49.301Z,96.91
2023-02-07T05:37:49.316Z,97.02
2023-02-07T05:38:49.274Z,97.13
2023-02-07T05:39:49.284Z,97.33
2023-02-07T05:40:49.336Z,97.65
2023-02-07T05:41:49.260Z,97.55
2023-02-07T05:42:49.229Z,96.70
2023-02-07T05:43:49.248Z,96.03
2023-02-07T05:44:49.210Z,95.29
2023-02-07T05:45:49.282Z,95.07
2023-02-07T05:46:51.716Z,95.18
2023-02-07T05:47:49.206Z,95.60
2023-02-07T05:48:49.157Z,94.55
2023-02-07T05:49:49.168Z,93.91
2023-02-07T05:50:49.128Z,93.38
2023-02-07T05:51:49.136Z,93.03
2023-02-07T05:52:49.147Z,92.92
2023-02-07T05:53:49.127Z,92.86
2023-02-07T05:54:49.086Z,92.60
2023-02-07T05:55:49.100Z,92.50
2023-02-07T05:56:49.191Z,92.29
2023-02-07T05:57:49.204Z,91.76
2023-02-07T05:58:49.029Z,91.66
2023-02-07T05:59:49.073Z,91.55
2023-02-07T06:00:49.006Z,91.44
2023-02-07T06:01:49.023Z,91.34
2023-02-07T06:02:49.067Z,90.70
2023-02-07T06:03:49.184Z,90.03
2023-02-07T06:04:48.985Z,89.76
2023-02-07T06:05:48.992Z,90.14
2023-02-07T06:06:48.950Z,90.56
2023-02-07T06:07:48.952Z,89.40
2023-02-07T06:08:49.228Z,88.66
2023-02-07T06:09:48.939Z,88.77
2023-02-07T06:10:48.885Z,88.66
2023-02-07T06:11:48.899Z,88.45
2023-02-07T06:12:48.900Z,88.56
2023-02-07T06:13:48.884Z,88.56
2023-02-07T06:14:48.914Z,88.77
2023-02-07T06:15:48.921Z,89.12
2023-02-07T06:16:48.839Z,89.44
2023-02-07T06:17:48.873Z,90.08
2023-02-07T06:18:48.799Z,90.50
2023-02-07T06:19:48.807Z,90.50
2023-02-07T06:20:48.844Z,90.18
2023-02-07T06:21:48.783Z,90.28
2023-02-07T06:22:48.758Z,90.60
2023-02-07T06:23:48.749Z,90.50
2023-02-07T06:24:48.748Z,89.97
2023-02-07T06:25:48.776Z,89.65
2023-02-07T06:26:48.768Z,89.86
2023-02-07T06:27:48.760Z,89.65
2023-02-07T06:28:48.678Z,89.34
2023-02-07T06:29:48.677Z,89.34
2023-02-07T06:30:48.732Z,89.76
2023-02-07T06:31:48.762Z,89.86
2023-02-07T06:32:49.309Z,89.76
2023-02-07T06:33:48.638Z,89.54
2023-02-07T06:34:48.614Z,89.34
2023-02-07T06:35:48.647Z,89.23
2023-02-07T06:36:48.621Z,89.23
2023-02-07T06:37:48.648Z,89.02
2023-02-07T06:38:49.653Z,89.12
2023-02-07T06:39:48.586Z,89.34
2023-02-07T06:40:48.610Z,89.34
2023-02-07T06:41:48.586Z,89.34
2023-02-07T06:42:48.514Z,89.44
2023-02-07T06:43:48.529Z,89.34
2023-02-07T06:44:48.940Z,89.54
2023-02-07T06:45:48.503Z,89.76
2023-02-07T06:46:48.466Z,89.97
2023-02-07T06:47:48.469Z,90.43
2023-02-07T06:48:48.471Z,90.96
2023-02-07T06:49:48.456Z,91.13
2023-02-07T06:50:48.472Z,91.24
2023-02-07T06:51:48.429Z,91.17
2023-02-07T06:52:48.396Z,91.17
2023-02-07T06:53:48.463Z,91.06
2023-02-07T06:54:48.381Z,91.59
2023-02-07T06:55:48.474Z,92.05
2023-02-07T06:56:48.359Z,92.27
2023-02-07T06:57:48.382Z,92.48
2023-02-07T06:58:48.320Z,92.79
2023-02-07T06:59:48.328Z,93.01
2023-02-07T07:00:48.442Z,93.01
2023-02-07T07:01:49.542Z,92.90
2023-02-07T07:02:48.300Z,92.90
2023-02-07T07:03:48.300Z,92.96
2023-02-07T07:04:48.266Z,93.07
2023-02-07T07:05:48.397Z,93.38
2023-02-07T07:06:48.244Z,93.38
2023-02-07T07:07:48.258Z,92.71
2023-02-07T07:08:48.219Z,91.41
2023-02-07T07:09:48.279Z,90.10
2023-02-07T07:10:48.251Z,88.79
2023-02-07T07:11:48.211Z,87.42
2023-02-07T07:12:48.182Z,86.54
2023-02-07T07:13:48.257Z,85.70
2023-02-07T07:14:48.155Z,85.49
2023-02-07T07:15:48.283Z,85.60
2023-02-07T07:16:48.123Z,85.60
2023-02-07T07:17:48.108Z,85.70
2023-02-07T07:18:48.102Z,85.66
2023-02-07T07:19:48.138Z,85.31
2023-02-07T07:20:48.136Z,84.74
2023-02-07T07:21:48.136Z,84.01
2023-02-07T07:22:48.056Z,83.54
2023-02-07T07:23:48.063Z,83.02
2023-02-07T07:24:48.025Z,82.35
2023-02-07T07:25:48.246Z,81.83
2023-02-07T07:26:49.734Z,81.20
2023-02-07T07:27:48.075Z,80.95
2023-02-07T07:28:47.985Z,80.32
2023-02-07T07:29:48.003Z,80.11
2023-02-07T07:30:48.124Z,80.32
2023-02-07T07:31:48.007Z,80.08
2023-02-07T07:32:47.917Z,79.76
2023-02-07T07:33:47.941Z,79.52
2023-02-07T07:34:47.902Z,79.10
2023-02-07T07:35:47.952Z,78.85
2023-02-07T07:36:47.867Z,78.22
2023-02-07T07:37:47.880Z,77.80
2023-02-07T07:38:48.008Z,77.76
2023-02-07T07:39:47.873Z,77.03
2023-02-07T07:40:47.991Z,76.82
2023-02-07T07:41:47.825Z,76.40
2023-02-07T07:42:47.818Z,76.06
2023-02-07T07:43:47.814Z,76.26
2023-02-07T07:44:47.766Z,75.60
2023-02-07T07:45:47.852Z,74.76
2023-02-07T07:46:47.806Z,74.66
2023-02-07T07:47:47.761Z,74.87
2023-02-07T07:48:47.715Z,74.69
2023-02-07T07:49:47.799Z,74.76
2023-02-07T07:50:47.711Z,74.87
2023-02-07T07:51:47.832Z,74.84
2023-02-07T07:52:47.688Z,74.94
2023-02-07T07:53:47.676Z,74.84
2023-02-07T07:54:47.636Z,74.41
2023-02-07T07:55:47.676Z,74.52
2023-02-07T07:56:47.630Z,74.69
2023-02-07T07:57:48.927Z,74.80
2023-02-07T07:58:47.602Z,74.17
2023-02-07T07:59:47.604Z,73.82
2023-02-07T08:00:47.692Z,73.16
2023-02-07T08:01:47.596Z,72.02
2023-02-07T08:02:47.580Z,71.70
2023-02-07T08:03:47.811Z,71.59
2023-02-07T08:04:47.534Z,72.19
2023-02-07T08:05:47.640Z,73.30
2023-02-07T08:06:47.531Z,74.69
2023-02-07T08:07:47.583Z,75.35
2023-02-07T08:08:47.484Z,76.12
2023-02-07T08:09:47.590Z,76.86
2023-02-07T08:10:47.452Z,77.28
2023-02-07T08:11:47.464Z,77.70
2023-02-07T08:12:47.403Z,78.05
2023-02-07T08:13:47.437Z,78.47
2023-02-07T08:14:47.557Z,78.92
2023-02-07T08:15:47.409Z,78.81
2023-02-07T08:16:47.427Z,78.92
2023-02-07T08:17:47.381Z,79.97
2023-02-07T08:18:47.361Z,80.29
2023-02-07T08:19:47.821Z,79.86
2023-02-07T08:20:47.368Z,79.76
2023-02-07T08:21:47.335Z,79.66
2023-02-07T08:22:47.352Z,79.44
2023-02-07T08:23:47.303Z,79.55
2023-02-07T08:24:47.318Z,79.66
2023-02-07T08:25:47.358Z,80.29
2023-02-07T08:26:47.260Z,80.15
2023-02-07T08:27:47.295Z,79.52
2023-02-07T08:28:47.269Z,79.52
2023-02-07T08:29:47.250Z,79.72
2023-02-07T08:30:47.704Z,79.83
2023-02-07T08:31:47.239Z,79.62
2023-02-07T08:32:47.240Z,79.52
2023-02-07T08:33:47.149Z,79.52
2023-02-07T08:34:47.201Z,79.38
2023-02-07T08:35:47.183Z,79.52
2023-02-07T08:36:47.443Z,80.04
2023-02-07T08:37:47.136Z,80.21
2023-02-07T08:38:47.125Z,79.90
2023-02-07T08:39:47.162Z,79.30
2023-02-07T08:40:47.102Z,79.16
2023-02-07T08:41:47.073Z,79.16
2023-02-07T08:42:47.225Z,79.16
2023-02-07T08:43:47.076Z,78.85
2023-02-07T08:44:47.083Z,79.27
2023-02-07T08:45:47.181Z,79.48
2023-02-07T08:46:47.092Z,78.96
2023-02-07T08:47:47.086Z,79.16
2023-02-07T08:48:47.362Z,79.48
2023-02-07T08:49:47.012Z,79.75
2023-02-07T08:50:46.995Z,78.92
2023-02-07T08:51:46.959Z,78.53
2023-02-07T08:52:47.022Z,79.02
2023-02-07T08:53:46.993Z,79.13
2023-02-07T08:54:47.129Z,78.92
2023-02-07T08:55:46.959Z,79.02
2023-02-07T08:56:46.898Z,79.13
2023-02-07T08:57:46.958Z,78.71
2023-02-07T08:58:46.908Z,78.50
2023-02-07T08:59:46.887Z,78.81
2023-02-07T09:00:46.999Z,78.71
2023-02-07T09:01:46.818Z,78.92
2023-02-07T09:02:46.817Z,79.02
2023-02-07T09:03:46.866Z,78.50
2023-02-07T09:04:46.851Z,78.60
2023-02-07T09:05:46.857Z,78.08
2023-02-07T09:06:46.826Z,78.46
2023-02-07T09:07:46.752Z,78.57
2023-02-07T09:08:46.795Z,78.88
2023-02-07T09:09:46.733Z,78.95
2023-02-07T09:10:47.634Z,78.85
2023-02-07T09:11:46.749Z,78.95
2023-02-07T09:12:46.708Z,78.53
2023-02-07T09:13:46.671Z,77.91
2023-02-07T09:14:46.682Z,77.38
2023-02-07T09:15:46.721Z,77.48
2023-02-07T09:16:46.721Z,77.80
2023-02-07T09:17:46.642Z,78.08
2023-02-07T09:18:46.642Z,77.24
2023-02-07T09:19:46.665Z,76.51
2023-02-07T09:20:46.681Z,76.51
2023-02-07T09:21:46.571Z,76.40
2023-02-07T09:22:46.625Z,76.61
2023-02-07T09:23:46.642Z,76.72
2023-02-07T09:24:46.559Z,76.72
2023-02-07T09:25:46.613Z,76.09
2023-02-07T09:26:46.615Z,75.98
2023-02-07T09:27:46.529Z,75.88
2023-02-07T09:28:46.522Z,75.35
2023-02-07T09:29:46.471Z,75.46
2023-02-07T09:30:46.746Z,75.35
2023-02-07T09:31:46.598Z,76.09
2023-02-07T09:32:46.479Z,75.04
2023-02-07T09:33:46.418Z,75.46
2023-02-07T09:34:46.450Z,76.06
2023-02-07T09:35:46.409Z,76.57
2023-02-07T09:36:46.539Z,74.49
2023-02-07T09:37:49.759Z,74.69
2023-02-07T09:38:46.379Z,74.69
2023-02-07T09:39:46.350Z,74.27
2023-02-07T09:40:46.381Z,75.18
2023-02-07T09:41:46.373Z,75.49
2023-02-07T09:42:46.518Z,74.87
2023-02-07T09:43:46.465Z,73.72
2023-02-07T09:44:46.513Z,72.99
2023-02-07T09:45:46.360Z,73.69
2023-02-07T09:46:46.296Z,73.58
2023-02-07T09:47:46.273Z,73.37
2023-02-07T09:48:46.446Z,73.47
2023-02-07T09:49:46.246Z,73.69
2023-02-07T09:50:46.238Z,74.18
2023-02-07T09:51:46.270Z,74.49
2023-02-07T09:52:46.214Z,73.75
2023-02-07T09:53:46.166Z,73.55
2023-02-07T09:54:46.991Z,72.26
2023-02-07T09:55:46.149Z,72.68
2023-02-07T09:56:46.192Z,72.16
2023-02-07T09:57:46.161Z,72.61
2023-02-07T09:58:47.081Z,72.92
2023-02-07T09:59:46.110Z,72.58
2023-02-07T10:00:47.674Z,72.89
2023-02-07T10:01:46.070Z,72.89
2023-02-07T10:02:46.132Z,72.58
2023-02-07T10:03:46.037Z,72.68
2023-02-07T10:04:46.066Z,73.48
2023-02-07T10:05:46.206Z,72.96
2023-02-07T10:06:46.067Z,72.26
2023-02-07T10:07:45.991Z,72.36
2023-02-07T10:08:46.004Z,72.78
2023-02-07T10:09:45.978Z,73.38
2023-02-07T10:10:46.049Z,72.85
2023-02-07T10:11:46.123Z,72.33
2023-02-07T10:12:45.962Z,71.70
2023-02-07T10:13:45.913Z,71.19
2023-02-07T10:14:45.930Z,70.76
2023-02-07T10:15:45.935Z,70.25
2023-02-07T10:16:46.030Z,70.87
2023-02-07T10:17:45.874Z,70.56
2023-02-07T10:18:45.881Z,70.35
2023-02-07T10:19:45.840Z,71.08
2023-02-07T10:20:45.869Z,70.45
2023-02-07T10:21:46.282Z,70.87
2023-02-07T10:22:45.864Z,71.50
2023-02-07T10:23:45.824Z,71.19
2023-02-07T10:24:45.837Z,71.19
2023-02-07T10:25:45.792Z,70.87
2023-02-07T10:26:45.893Z,70.66
2023-02-07T10:27:45.829Z,70.76
2023-02-07T10:28:45.774Z,70.87
2023-02-07T10:29:45.749Z,70.45
2023-02-07T10:30:45.953Z,70.56
2023-02-07T10:31:45.803Z,70.66
2023-02-07T10:32:45.697Z,70.56
2023-02-07T10:33:45.672Z,70.56
2023-02-07T10:34:45.707Z,71.04
2023-02-07T10:35:45.717Z,70.94
2023-02-07T10:36:45.760Z,70.53
2023-02-07T10:37:45.647Z,70.32
2023-02-07T10:38:45.632Z,70.94
2023-02-07T10:39:45.596Z,70.53
2023-02-07T10:40:45.605Z,69.59
2023-02-07T10:41:45.596Z,69.48
2023-02-07T10:42:45.683Z,69.69
2023-02-07T10:43:45.579Z,70.32
2023-02-07T10:44:45.618Z,69.27
2023-02-07T10:45:49.889Z,68.54
2023-02-07T10:46:46.584Z,69.59
2023-02-07T10:47:45.581Z,70.11
2023-02-07T10:48:47.349Z,71.12
2023-02-07T10:49:45.502Z,69.56
2023-02-07T10:50:45.800Z,68.72
2023-02-07T10:51:45.466Z,69.03
2023-02-07T10:52:45.502Z,68.72
2023-02-07T10:53:54.132Z,69.03
2023-02-07T10:54:46.449Z,68.69
2023-02-07T10:55:45.391Z,68.79
2023-02-07T10:56:45.408Z,68.38
2023-02-07T10:57:51.032Z,68.59
2023-02-07T10:58:46.612Z,67.85
2023-02-07T10:59:45.349Z,68.35
2023-02-07T11:00:45.364Z,68.13
2023-02-07T11:01:45.389Z,67.30
2023-02-07T11:02:45.360Z,67.30
2023-02-07T11:03:45.336Z,67.69
2023-02-07T11:04:45.325Z,67.79
2023-02-07T11:05:45.369Z,67.48
2023-02-07T11:06:45.274Z,67.27
2023-02-07T11:07:47.931Z,66.96
2023-02-07T11:08:45.241Z,66.33
2023-02-07T11:09:45.322Z,66.02
2023-02-07T11:10:45.353Z,66.54
2023-02-07T11:11:45.229Z,66.89
2023-02-07T11:12:45.195Z,67.93
2023-02-07T11:13:45.233Z,68.84
2023-02-07T11:15:54.997Z,66.23
2023-02-07T11:16:57.621Z,65.81
2023-02-07T11:17:54.908Z,65.30
2023-02-07T11:18:54.804Z,64.85
2023-02-07T11:19:54.822Z,64.77
2023-02-07T11:20:54.832Z,64.87
2023-02-07T11:21:55.071Z,66.13
2023-02-07T11:22:54.760Z,64.98
2023-02-07T11:23:55.862Z,65.40
2023-02-07T11:24:54.774Z,64.56
2023-02-07T11:25:54.741Z,65.09
2023-02-07T11:26:54.719Z,65.71
2023-02-07T11:27:54.789Z,65.19
2023-02-07T11:28:54.680Z,64.56
2023-02-07T11:29:54.694Z,63.73
2023-02-07T11:30:54.665Z,63.32
2023-02-07T11:31:54.698Z,63.42
2023-02-07T11:32:54.663Z,64.64
2023-02-07T11:33:54.647Z,64.53
2023-02-07T11:34:54.604Z,63.70
2023-02-07T11:35:54.652Z,63.81
2023-02-07T11:36:54.593Z,62.95
2023-02-07T11:37:54.640Z,62.43
2023-02-07T11:38:54.546Z,61.93
2023-02-07T11:39:54.557Z,62.24
2023-02-07T11:40:54.525Z,61.93
2023-02-07T11:41:54.527Z,62.14
2023-02-07T11:42:54.556Z,61.72
2023-02-07T11:43:54.496Z,61.52
2023-02-07T11:44:54.496Z,62.35
2023-02-07T11:45:54.461Z,63.18
2023-02-07T11:46:54.478Z,62.04
2023-02-07T11:47:54.644Z,60.78
2023-02-07T11:48:54.447Z,61.10
2023-02-07T11:49:54.418Z,60.47
2023-02-07T11:50:54.414Z,60.68
2023-02-07T11:51:54.391Z,60.58
2023-02-07T11:52:54.404Z,61.80
2023-02-07T11:53:54.453Z,62.01
2023-02-07T11:54:54.376Z,60.14
2023-02-07T11:55:54.341Z,59.20
2023-02-07T11:56:54.343Z,59.30
2023-02-07T11:57:54.301Z,60.14
2023-02-07T11:58:54.410Z,60.66
2023-02-07T11:59:54.339Z,60.14
2023-02-07T12:00:54.299Z,58.47
2023-02-07T12:01:54.316Z,61.04
2023-02-07T12:02:54.268Z,59.80
2023-02-07T12:03:54.234Z,58.68
2023-02-07T12:04:54.301Z,58.16
2023-02-07T12:05:54.213Z,59.41
2023-02-07T12:06:54.213Z,60.63
2023-02-07T12:07:54.182Z,61.36
2023-02-07T12:08:54.202Z,59.17
2023-02-07T12:09:54.168Z,59.07
2023-02-07T12:10:54.248Z,59.98
2023-02-07T12:11:54.163Z,61.43
2023-02-07T12:13:02.661Z,59.77
2023-02-07T12:14:03.101Z,59.56
2023-02-07T12:15:02.636Z,59.77
2023-02-07T12:16:01.681Z,59.14
2023-02-07T12:16:54.078Z,56.13
2023-02-07T12:17:54.077Z,57.09
2023-02-07T12:18:54.056Z,57.79
2023-02-07T12:19:54.085Z,58.11
2023-02-07T12:20:54.056Z,57.59
2023-02-07T12:21:54.046Z,57.69
2023-02-07T12:23:04.839Z,57.28
2023-02-07T12:23:55.000Z,57.69
2023-02-07T12:24:54.135Z,57.48
2023-02-07T12:25:53.948Z,56.76
2023-02-07T12:27:01.604Z,56.44
2023-02-07T12:28:01.451Z,56.23
2023-02-07T12:29:12.399Z,55.30
2023-02-07T12:30:01.478Z,56.23
2023-02-07T12:30:53.939Z,56.34
2023-02-07T12:31:54.022Z,55.19
2023-02-07T12:32:54.124Z,56.55
2023-02-07T12:33:53.854Z,56.76
2023-02-07T12:34:53.870Z,57.59
2023-02-07T12:35:57.584Z,57.45
2023-02-07T12:36:53.980Z,56.73
2023-02-07T12:37:53.804Z,58.70
2023-02-07T12:38:53.887Z,60.24
2023-02-07T12:39:53.766Z,57.64
2023-02-07T12:40:53.771Z,55.69
2023-02-07T12:41:53.747Z,54.86
2023-02-07T12:42:53.756Z,54.86
2023-02-07T12:43:53.970Z,54.36
2023-02-07T12:44:53.746Z,54.68
2023-02-07T12:45:53.700Z,56.21
2023-02-07T12:46:53.703Z,56.21
2023-02-07T12:47:53.682Z,56.00
2023-02-07T12:48:53.878Z,56.29
2023-02-07T12:49:53.646Z,55.77
2023-02-07T12:50:53.651Z,55.56
2023-02-07T12:51:53.620Z,54.75
2023-02-07T12:52:53.630Z,54.44
2023-02-07T12:53:53.626Z,56.00
2023-02-07T12:54:54.072Z,55.79
2023-02-07T12:55:53.611Z,57.24
2023-02-07T12:56:53.578Z,56.60
2023-02-07T12:57:53.701Z,56.70
2023-02-07T12:58:53.539Z,55.25
2023-02-07T12:59:53.520Z,54.32
2023-02-07T13:00:53.619Z,53.80
2023-02-07T13:01:53.658Z,54.00
2023-02-07T13:02:53.501Z,55.25
2023-02-07T13:03:53.445Z,56.08
2023-02-07T13:04:53.464Z,56.47
2023-02-07T13:05:53.516Z,54.42
2023-02-07T13:06:53.433Z,54.94
2023-02-07T13:07:53.403Z,54.52
2023-02-07T13:08:53.447Z,53.38
2023-02-07T13:09:53.385Z,54.21
2023-02-07T13:10:53.408Z,54.11
2023-02-07T13:11:53.452Z,54.42
2023-02-07T13:12:53.511Z,53.90
2023-02-07T13:13:53.398Z,54.60
2023-02-07T13:14:53.337Z,55.22
2023-02-07T13:15:53.309Z,54.50
2023-02-07T13:16:53.368Z,56.26
2023-02-07T13:17:53.370Z,57.40
2023-02-07T13:18:53.293Z,55.85
2023-02-07T13:19:53.245Z,54.50
2023-02-07T13:20:53.263Z,53.75
2023-02-07T13:21:53.228Z,54.06
2023-02-07T13:22:53.246Z,54.89
2023-02-07T13:23:53.261Z,54.47
2023-02-07T13:24:53.238Z,53.44
2023-02-07T13:25:53.210Z,52.61
2023-02-07T13:26:53.189Z,53.54
2023-02-07T13:27:53.183Z,53.44
2023-02-07T13:28:53.165Z,53.12
2023-02-07T13:29:53.357Z,53.54
2023-02-07T13:30:53.164Z,54.19
2023-02-07T13:31:53.136Z,54.58
2023-02-07T13:32:53.098Z,53.96
2023-02-07T13:33:53.740Z,52.71
2023-02-07T13:34:53.177Z,52.71
2023-02-07T13:35:53.078Z,53.02
2023-02-07T13:36:53.063Z,52.50
2023-02-07T13:37:53.035Z,52.61
2023-02-07T13:38:53.035Z,54.37
2023-02-07T13:39:53.060Z,54.68
2023-02-07T13:40:53.034Z,53.02
2023-02-07T13:41:53.062Z,54.16
2023-02-07T13:42:52.984Z,54.89
2023-02-07T13:44:01.666Z,53.33
2023-02-07T13:44:54.005Z,52.92
2023-02-07T13:45:52.966Z,52.92
2023-02-07T13:46:52.950Z,53.64
2023-02-07T13:47:52.904Z,51.86
2023-02-07T13:48:59.923Z,51.44
2023-02-07T13:50:00.415Z,51.86
2023-02-07T13:51:00.380Z,52.06
2023-02-07T13:52:00.366Z,50.20
2023-02-07T13:52:52.846Z,49.78
2023-02-07T13:53:52.831Z,48.95
2023-02-07T13:54:52.835Z,48.87
2023-02-07T13:55:52.851Z,49.29
2023-02-07T13:56:52.801Z,49.47
2023-02-07T13:57:52.792Z,49.57
2023-02-07T13:58:52.793Z,49.78
2023-02-07T13:59:52.741Z,51.44
2023-02-07T14:00:52.943Z,51.73
2023-02-07T14:01:52.758Z,49.44
2023-02-07T14:02:52.738Z,48.95
2023-02-07T14:03:52.715Z,48.43
2023-02-07T14:04:52.707Z,48.85
2023-02-07T14:05:52.718Z,49.39
2023-02-07T14:06:52.697Z,50.12
2023-02-07T14:07:52.660Z,49.08
2023-02-07T14:08:54.206Z,49.39
2023-02-07T14:09:52.641Z,48.97
2023-02-07T14:10:52.679Z,48.87
2023-02-07T14:11:52.604Z,49.18
2023-02-07T14:12:52.624Z,48.66
2023-02-07T14:13:52.585Z,48.56
2023-02-07T14:15:02.320Z,48.33
2023-02-07T14:15:53.640Z,48.33
2023-02-07T14:16:52.589Z,48.02
2023-02-07T14:17:52.512Z,47.83
2023-02-07T14:18:52.566Z,47.73
2023-02-07T14:19:52.495Z,48.14
2023-02-07T14:20:52.525Z,47.31
2023-02-07T14:21:52.515Z,48.12
2023-02-07T14:22:52.493Z,47.60
2023-02-07T14:23:52.428Z,48.74
2023-02-07T14:24:52.437Z,48.22
2023-02-07T14:25:52.407Z,47.29
2023-02-07T14:26:52.520Z,46.48
2023-02-07T14:27:52.539Z,47.63
2023-02-07T14:28:52.392Z,48.14
2023-02-07T14:29:52.359Z,47.73
2023-02-07T14:30:52.434Z,47.63
2023-02-07T14:31:52.474Z,47.63
2023-02-07T14:32:52.398Z,48.46
2023-02-07T14:33:52.294Z,47.73
2023-02-07T14:34:52.298Z,47.42
2023-02-07T14:35:52.282Z,47.42
2023-02-07T14:36:52.302Z,47.63
2023-02-07T14:37:52.261Z,47.64
2023-02-07T14:38:52.497Z,48.99
2023-02-07T14:39:52.228Z,49.29
2023-02-07T14:40:56.399Z,48.35
2023-02-07T14:41:53.213Z,47.83
2023-02-07T14:42:52.226Z,48.35
2023-02-07T14:44:07.450Z,49.18
2023-02-07T14:44:53.247Z,49.91
2023-02-07T14:45:52.306Z,49.70
2023-02-07T14:46:52.230Z,48.68
2023-02-07T14:47:52.166Z,47.85
2023-02-07T14:48:52.174Z,48.16
2023-02-07T14:49:52.128Z,48.16
2023-02-07T14:50:52.353Z,48.47
2023-02-07T14:51:52.080Z,48.58
2023-02-07T14:52:52.095Z,49.20
2023-02-07T14:53:52.046Z,48.58
2023-02-07T14:54:52.086Z,47.77
2023-02-07T14:55:52.074Z,47.67
2023-02-07T14:56:52.596Z,48.50
2023-02-07T14:57:52.156Z,48.39
2023-02-07T14:58:52.004Z,48.29
2023-02-07T14:59:51.985Z,48.19
2023-02-07T15:00:51.993Z,48.60
2023-02-07T15:01:51.973Z,49.12
2023-02-07T15:02:52.048Z,48.29
2023-02-07T15:03:51.923Z,48.60
2023-02-07T15:04:51.991Z,48.31
2023-02-07T15:05:51.911Z,49.35
2023-02-07T15:06:51.929Z,49.35
2023-02-07T15:07:51.887Z,48.72
2023-02-07T15:08:52.004Z,49.25
2023-02-07T15:09:58.905Z,48.00
2023-02-07T15:10:58.938Z,47.58
2023-02-07T15:12:05.853Z,47.69
2023-02-07T15:12:59.358Z,48.00
2023-02-07T15:13:51.807Z,48.21
2023-02-07T15:14:52.435Z,49.04
2023-02-07T15:15:51.794Z,48.52
2023-02-07T15:16:51.778Z,48.31
2023-02-07T15:17:51.749Z,48.21
2023-02-07T15:18:51.761Z,48.31
2023-02-07T15:19:51.734Z,49.25
2023-02-07T15:20:51.752Z,51.22
2023-02-07T15:21:51.691Z,51.43
2023-02-07T15:22:51.745Z,50.39
2023-02-07T15:23:51.680Z,51.95
2023-02-07T15:24:52.211Z,51.87
2023-02-07T15:25:52.224Z,51.56
2023-02-07T15:26:51.674Z,51.66
2023-02-07T15:27:51.706Z,51.97
2023-02-07T15:28:51.596Z,51.04
2023-02-07T15:29:51.607Z,51.25
2023-02-07T15:30:51.679Z,51.45
2023-02-07T15:31:51.827Z,51.87
2023-02-07T15:32:51.603Z,53.01
2023-02-07T15:33:51.573Z,51.89
2023-02-07T15:34:51.524Z,51.79
2023-02-07T15:35:51.542Z,52.51
2023-02-07T15:36:51.558Z,53.77
2023-02-07T15:37:51.534Z,51.58
2023-02-07T15:38:51.479Z,51.37
2023-02-07T15:39:51.491Z,51.89
2023-02-07T15:40:51.442Z,50.65
2023-02-07T15:41:51.620Z,51.37
2023-02-07T15:42:51.434Z,51.89
2023-02-07T15:43:51.438Z,51.17
2023-02-07T15:44:51.384Z,50.12
2023-02-07T15:45:51.413Z,50.23
2023-02-07T15:46:51.524Z,49.71
2023-02-07T15:47:51.393Z,49.50
2023-02-07T15:48:51.404Z,50.12
2023-02-07T15:49:51.348Z,50.33
2023-02-07T15:50:51.342Z,50.54
2023-02-07T15:51:51.363Z,51.48
2023-02-07T15:52:51.406Z,52.41
2023-02-07T15:53:51.385Z,52.33
2023-02-07T15:54:51.309Z,51.71
2023-02-07T15:55:51.289Z,52.75
2023-02-07T15:56:51.271Z,52.85
2023-02-07T15:57:51.300Z,51.71
2023-02-07T15:58:51.220Z,51.92
2023-02-07T15:59:52.212Z,54.02
2023-02-07T16:00:51.181Z,53.81
2023-02-07T16:01:51.236Z,52.87
2023-02-07T16:02:51.628Z,53.08
2023-02-07T16:03:51.164Z,52.80
2023-02-07T16:04:51.147Z,52.59
2023-02-07T16:05:51.145Z,51.23
2023-02-07T16:06:51.104Z,52.17
2023-02-07T16:07:51.128Z,51.65
2023-02-07T16:08:51.281Z,52.28
2023-02-07T16:09:51.090Z,53.03
2023-02-07T16:10:51.070Z,53.23
2023-02-07T16:11:51.069Z,53.34
2023-02-07T16:12:51.041Z,53.76
2023-02-07T16:13:51.083Z,53.66
2023-02-07T16:14:51.800Z,54.51
2023-02-07T16:15:51.097Z,54.51
2023-02-07T16:16:50.996Z,54.93
2023-02-07T16:17:50.992Z,55.76
2023-02-07T16:18:50.969Z,56.52
2023-02-07T16:19:50.981Z,55.58
2023-02-07T16:20:51.187Z,56.52
2023-02-07T16:21:50.936Z,56.83
2023-02-07T16:22:50.958Z,56.73
2023-02-07T16:23:50.948Z,56.52
2023-02-07T16:24:50.927Z,56.65
2023-02-07T16:25:50.948Z,56.76
2023-02-07T16:26:51.963Z,57.28
2023-02-07T16:27:50.881Z,57.62
2023-02-07T16:28:50.832Z,58.14
2023-02-07T16:29:50.860Z,58.14
2023-02-07T16:30:50.820Z,58.03
2023-02-07T16:31:50.849Z,58.34
2023-02-07T16:32:50.845Z,59.73
2023-02-07T16:33:50.827Z,61.08
2023-02-07T16:35:00.109Z,62.76
2023-02-07T16:35:50.745Z,62.99
2023-02-07T16:36:58.222Z,60.91
2023-02-07T16:37:50.758Z,61.22
2023-02-07T16:38:57.734Z,60.38
2023-02-07T16:39:50.710Z,59.21
2023-02-07T16:40:50.676Z,59.52
2023-02-07T16:41:50.672Z,59.31
2023-02-07T16:42:50.722Z,59.52
2023-02-07T16:43:50.662Z,60.36
2023-02-07T16:44:50.621Z,60.49
2023-02-07T16:45:50.670Z,60.91
2023-02-07T16:46:50.647Z,60.91
2023-02-07T16:47:50.760Z,60.70
2023-02-07T16:48:50.590Z,61.35
2023-02-07T16:49:50.590Z,61.46
2023-02-07T16:50:50.558Z,61.46
2023-02-07T16:51:50.574Z,61.35
2023-02-07T16:52:50.538Z,62.40
2023-02-07T16:53:50.579Z,61.98
2023-02-07T16:54:50.517Z,61.98
2023-02-07T16:55:50.561Z,62.01
2023-02-07T16:56:50.494Z,62.22
2023-02-07T16:57:50.539Z,62.32
2023-02-07T16:58:50.490Z,62.63
2023-02-07T16:59:50.479Z,62.98
2023-02-07T17:00:50.486Z,63.08
2023-02-07T17:01:50.496Z,63.18
2023-02-07T17:02:50.459Z,63.40
2023-02-07T17:03:50.550Z,63.64
2023-02-07T17:04:50.406Z,63.84
2023-02-07T17:05:50.393Z,64.15
2023-02-07T17:06:50.358Z,64.47
2023-02-07T17:07:50.449Z,64.81
2023-02-07T17:08:50.448Z,65.23
2023-02-07T17:09:50.407Z,65.76
2023-02-07T17:10:50.310Z,66.49
2023-02-07T17:11:50.311Z,67.54
2023-02-07T17:12:50.310Z,67.64
2023-02-07T17:13:50.324Z,67.85
2023-02-07T17:14:59.055Z,67.22
2023-02-07T17:15:50.270Z,68.16
2023-02-07T17:16:50.353Z,67.75
2023-02-07T17:17:50.229Z,68.06
2023-02-07T17:18:50.249Z,68.48
2023-02-07T17:19:50.220Z,68.16
2023-02-07T17:20:50.229Z,67.54
2023-02-07T17:21:50.195Z,67.96
2023-02-07T17:22:50.233Z,68.06
2023-02-07T17:23:50.222Z,69.95
2023-02-07T17:24:50.129Z,69.35
2023-02-07T17:25:50.145Z,70.29
2023-02-07T17:26:50.109Z,69.87
2023-02-07T17:27:50.128Z,71.34
2023-02-07T17:28:50.076Z,70.29
2023-02-07T17:29:50.124Z,70.50
2023-02-07T17:30:50.090Z,72.18
2023-02-07T17:31:50.286Z,72.94
2023-02-07T17:32:50.034Z,73.36
2023-02-07T17:33:50.252Z,72.84
2023-02-07T17:34:50.002Z,71.79
2023-02-07T17:35:50.045Z,72.21
2023-02-07T17:36:49.972Z,72.42
2023-02-07T17:37:50.021Z,72.84
2023-02-07T17:38:49.943Z,72.56
2023-02-07T17:39:50.036Z,73.19
2023-02-07T17:40:49.948Z,73.29
2023-02-07T17:41:49.932Z,73.50
2023-02-07T17:42:49.908Z,73.82
2023-02-07T17:43:49.893Z,73.92
2023-02-07T17:44:49.866Z,73.92
2023-02-07T17:45:50.244Z,73.92
2023-02-07T17:46:49.855Z,73.92
2023-02-07T17:47:49.875Z,74.02
2023-02-07T17:48:49.825Z,74.37
2023-02-07T17:49:49.840Z,74.48
2023-02-07T17:50:49.777Z,74.79
2023-02-07T17:51:49.859Z,74.79
2023-02-07T17:52:49.769Z,75.14
2023-02-07T17:53:49.762Z,75.35